createdAt,value
2018-07-17T00:00:08.636Z,6.20
2018-07-17T00:02:37.874Z,6.30
2018-07-17T00:05:08.227Z,6.07
2018-07-17T00:07:37.579Z,6.20
2018-07-17T00:10:06.782Z,6.47
2018-07-17T00:12:36.095Z,6.50
2018-07-17T00:15:05.176Z,5.43
2018-07-17T00:17:34.392Z,7.33
2018-07-17T00:20:03.613Z,6.17
2018-07-17T00:22:32.848Z,5.97
2018-07-17T00:25:02.050Z,5.93
2018-07-17T00:27:31.073Z,5.63
2018-07-17T00:30:00.298Z,6.27
2018-07-17T00:32:29.328Z,6.13
2018-07-17T00:34:58.170Z,6.00
2018-07-17T00:37:27.417Z,5.30
2018-07-17T00:39:56.583Z,5.83
2018-07-17T00:42:25.824Z,5.87
2018-07-17T00:44:54.874Z,5.70
2018-07-17T00:47:24.053Z,6.20
2018-07-17T00:49:52.789Z,7.03
2018-07-17T00:52:21.765Z,5.53
2018-07-17T00:54:50.786Z,6.00
2018-07-17T00:57:19.916Z,5.73
2018-07-17T00:59:49.178Z,6.10
2018-07-17T01:02:23.410Z,5.67
2018-07-17T01:04:57.488Z,5.87
2018-07-17T01:07:31.415Z,6.10
2018-07-17T01:10:05.612Z,5.60
2018-07-17T01:12:33.699Z,5.60
2018-07-17T01:15:08.999Z,7.13
2018-07-17T01:17:37.985Z,6.63
2018-07-17T01:20:07.171Z,6.93
2018-07-17T01:22:36.302Z,7.60
2018-07-17T01:25:05.184Z,7.40
2018-07-17T01:27:34.242Z,7.23
2018-07-17T01:30:03.537Z,7.83
2018-07-17T01:32:32.584Z,7.07
2018-07-17T01:35:01.772Z,7.23
2018-07-17T01:37:30.829Z,7.30
2018-07-17T01:40:00.709Z,7.00
2018-07-17T01:42:29.703Z,6.40
2018-07-17T01:44:58.767Z,6.37
2018-07-17T01:47:27.929Z,6.63
2018-07-17T01:49:56.957Z,6.10
2018-07-17T01:52:25.726Z,6.70
2018-07-17T01:54:54.733Z,6.50
2018-07-17T01:57:23.870Z,6.70
2018-07-17T01:59:52.979Z,7.83
2018-07-17T02:02:22.138Z,6.60
2018-07-17T02:04:51.266Z,6.17
2018-07-17T02:07:20.320Z,6.53
2018-07-17T02:09:49.499Z,6.20
2018-07-17T02:12:18.607Z,6.23
2018-07-17T02:14:47.642Z,6.03
2018-07-17T02:17:16.957Z,6.50
2018-07-17T02:19:46.091Z,6.60
2018-07-17T02:22:15.231Z,6.40
2018-07-17T02:24:44.276Z,7.00
2018-07-17T02:27:13.031Z,6.83
2018-07-17T02:29:42.016Z,6.20
2018-07-17T02:32:11.050Z,6.27
2018-07-17T02:34:40.338Z,6.33
2018-07-17T02:37:09.447Z,7.03
2018-07-17T02:39:38.589Z,6.40
2018-07-17T02:42:07.843Z,6.90
2018-07-17T02:44:36.912Z,6.57
2018-07-17T02:47:05.851Z,7.23
2018-07-17T02:49:35.143Z,7.43
2018-07-17T02:52:04.272Z,6.67
2018-07-17T02:54:33.486Z,6.20
2018-07-17T02:57:02.468Z,6.80
2018-07-17T02:59:31.487Z,6.20
2018-07-17T03:02:00.600Z,6.70
2018-07-17T03:04:29.431Z,6.63
2018-07-17T03:06:58.581Z,6.27
2018-07-17T03:09:27.894Z,6.30
2018-07-17T03:11:56.637Z,6.13
2018-07-17T03:14:25.639Z,6.77
2018-07-17T03:16:54.540Z,6.30
2018-07-17T03:19:23.819Z,7.77
2018-07-17T03:21:52.986Z,11.67
2018-07-17T03:24:21.963Z,7.43
2018-07-17T03:26:50.983Z,7.03
2018-07-17T03:29:20.119Z,8.40
2018-07-17T03:31:48.803Z,7.73
2018-07-17T03:34:17.906Z,7.43
2018-07-17T03:36:47.026Z,9.53
2018-07-17T03:39:16.166Z,7.17
2018-07-17T03:41:45.423Z,7.53
2018-07-17T03:44:14.524Z,7.37
2018-07-17T03:46:43.656Z,7.73
2018-07-17T03:49:12.918Z,8.50
2018-07-17T03:51:41.825Z,7.63
2018-07-17T03:54:10.941Z,7.63
2018-07-17T03:56:40.194Z,7.87
2018-07-17T03:59:09.338Z,7.30
2018-07-17T04:01:38.563Z,7.30
2018-07-17T04:04:07.587Z,7.60
2018-07-17T04:06:36.523Z,8.03
2018-07-17T04:09:06.772Z,6.87
2018-07-17T04:11:35.958Z,7.10
2018-07-17T04:14:05.483Z,7.47
2018-07-17T04:16:34.346Z,6.90
2018-07-17T04:19:03.428Z,7.70
2018-07-17T04:21:32.659Z,7.60
2018-07-17T04:24:01.863Z,8.07
2018-07-17T04:26:30.910Z,7.80
2018-07-17T04:28:59.992Z,7.53
2018-07-17T04:31:29.103Z,7.47
2018-07-17T04:33:58.246Z,6.97
2018-07-17T04:36:27.299Z,7.40
2018-07-17T04:38:56.426Z,8.43
2018-07-17T04:41:25.386Z,7.50
2018-07-17T04:43:54.419Z,8.33
2018-07-17T04:46:23.705Z,8.47
2018-07-17T04:48:52.628Z,8.60
2018-07-17T04:51:21.665Z,8.87
2018-07-17T04:53:50.984Z,9.57
2018-07-17T04:56:19.834Z,9.00
2018-07-17T04:58:49.026Z,8.93
2018-07-17T05:01:18.178Z,8.80
2018-07-17T05:03:47.072Z,10.10
2018-07-17T05:06:16.383Z,9.10
2018-07-17T05:08:45.511Z,10.10
2018-07-17T05:11:14.401Z,9.83
2018-07-17T05:13:43.446Z,10.47
2018-07-17T05:16:12.314Z,10.10
2018-07-17T05:18:41.202Z,10.63
2018-07-17T05:21:10.057Z,10.67
2018-07-17T05:23:39.307Z,9.50
2018-07-17T05:26:08.460Z,9.70
2018-07-17T05:28:37.793Z,9.93
2018-07-17T05:31:07.049Z,9.83
2018-07-17T05:33:36.332Z,11.23
2018-07-17T05:36:05.448Z,10.37
2018-07-17T05:38:34.706Z,8.73
2018-07-17T05:41:03.843Z,8.53
2018-07-17T05:43:33.074Z,9.10
2018-07-17T05:46:02.182Z,8.43
2018-07-17T05:48:31.314Z,9.10
2018-07-17T05:51:00.269Z,9.77
2018-07-17T05:53:29.564Z,9.90
2018-07-17T05:55:58.654Z,10.60
2018-07-17T05:58:27.868Z,13.70
2018-07-17T06:00:56.895Z,11.20
2018-07-17T06:03:25.724Z,10.80
2018-07-17T06:05:54.870Z,10.87
2018-07-17T06:08:24.018Z,15.80
2018-07-17T06:10:53.110Z,12.33
2018-07-17T06:13:22.168Z,12.20
2018-07-17T06:15:51.423Z,10.40
2018-07-17T06:18:21.317Z,10.13
2018-07-17T06:20:50.463Z,10.47
2018-07-17T06:23:19.746Z,9.20
2018-07-17T06:25:48.762Z,9.83
2018-07-17T06:28:18.046Z,8.83
2018-07-17T06:30:47.002Z,9.57
2018-07-17T06:33:16.136Z,8.97
2018-07-17T06:35:45.435Z,9.40
2018-07-17T06:38:14.657Z,9.33
2018-07-17T06:40:43.474Z,10.77
2018-07-17T06:43:12.564Z,10.13
2018-07-17T06:45:41.958Z,9.07
2018-07-17T06:48:10.842Z,9.17
2018-07-17T06:50:40.063Z,9.50
2018-07-17T06:53:09.780Z,8.50
2018-07-17T06:55:39.030Z,8.57
2018-07-17T06:58:08.122Z,9.97
2018-07-17T07:00:37.202Z,8.83
2018-07-17T07:03:06.155Z,9.10
2018-07-17T07:05:35.019Z,8.60
2018-07-17T07:08:04.330Z,10.63
2018-07-17T07:10:33.475Z,9.23
2018-07-17T07:13:02.647Z,10.40
2018-07-17T07:15:31.338Z,10.27
2018-07-17T07:18:00.488Z,9.53
2018-07-17T07:20:29.661Z,11.47
2018-07-17T07:22:58.814Z,9.00
2018-07-17T07:25:27.980Z,9.10
2018-07-17T07:27:57.136Z,9.13
2018-07-17T07:30:26.250Z,9.83
2018-07-17T07:32:55.147Z,8.63
2018-07-17T07:35:24.338Z,9.17
2018-07-17T07:37:53.580Z,9.30
2018-07-17T07:40:22.795Z,9.37
2018-07-17T07:42:51.981Z,9.73
2018-07-17T07:45:21.155Z,9.67
2018-07-17T07:47:50.289Z,8.33
2018-07-17T07:50:19.299Z,10.10
2018-07-17T07:52:48.621Z,8.77
2018-07-17T07:55:17.894Z,9.83
2018-07-17T07:57:47.405Z,9.83
2018-07-17T08:00:16.600Z,9.90
2018-07-17T08:02:45.614Z,10.17
2018-07-17T08:05:14.779Z,12.13
2018-07-17T08:07:43.888Z,13.27
2018-07-17T08:10:13.086Z,10.83
2018-07-17T08:12:42.268Z,10.07
2018-07-17T08:15:11.515Z,10.37
2018-07-17T08:17:40.631Z,10.87
2018-07-17T08:20:09.903Z,10.20
2018-07-17T08:22:39.062Z,10.27
2018-07-17T08:25:08.051Z,9.37
2018-07-17T08:27:37.147Z,10.80
2018-07-17T08:30:06.320Z,10.37
2018-07-17T08:32:35.147Z,9.90
2018-07-17T08:35:04.394Z,9.53
2018-07-17T08:37:33.503Z,9.00
2018-07-17T08:40:02.855Z,7.27
2018-07-17T08:42:31.654Z,7.90
2018-07-17T08:45:00.724Z,8.70
2018-07-17T08:47:29.600Z,8.63
2018-07-17T08:49:58.515Z,8.37
2018-07-17T08:52:27.506Z,8.57
2018-07-17T08:54:56.668Z,8.00
2018-07-17T08:57:25.449Z,8.00
2018-07-17T08:59:54.478Z,7.87
2018-07-17T09:02:23.792Z,9.13
2018-07-17T09:04:52.992Z,10.10
2018-07-17T09:07:22.218Z,8.23
2018-07-17T09:09:51.390Z,8.60
2018-07-17T09:12:20.631Z,9.07
2018-07-17T09:14:49.570Z,11.37
2018-07-17T09:17:18.474Z,8.40
2018-07-17T09:19:47.479Z,9.30
2018-07-17T09:22:16.568Z,13.17
2018-07-17T09:24:45.650Z,19.80
2018-07-17T09:27:14.900Z,12.50
2018-07-17T09:29:44.143Z,14.40
2018-07-17T09:32:13.198Z,16.47
2018-07-17T09:34:42.375Z,12.67
2018-07-17T09:37:11.467Z,12.70
2018-07-17T09:39:40.533Z,10.90
2018-07-17T09:42:09.451Z,12.00
2018-07-17T09:44:38.550Z,9.47
2018-07-17T09:47:08.003Z,11.07
2018-07-17T09:49:37.152Z,10.33
2018-07-17T09:52:06.386Z,8.67
2018-07-17T09:54:35.498Z,6.87
2018-07-17T09:57:04.603Z,16.90
2018-07-17T09:59:33.684Z,6.63
2018-07-17T10:02:07.780Z,8.87
2018-07-17T10:04:36.606Z,8.77
2018-07-17T10:07:05.661Z,7.43
2018-07-17T10:09:34.942Z,7.70
2018-07-17T10:12:04.959Z,10.20
2018-07-17T10:14:34.006Z,7.07
2018-07-17T10:17:02.783Z,6.83
2018-07-17T10:19:31.848Z,6.27
2018-07-17T10:22:00.959Z,8.30
2018-07-17T10:24:30.032Z,6.03
2018-07-17T10:26:59.194Z,6.93
2018-07-17T10:29:28.462Z,5.60
2018-07-17T10:31:57.538Z,6.07
2018-07-17T10:34:26.469Z,4.13
2018-07-17T10:36:55.684Z,2.73
2018-07-17T10:39:25.036Z,5.93
2018-07-17T10:41:54.170Z,6.40
2018-07-17T10:44:23.262Z,6.17
2018-07-17T10:46:52.406Z,5.50
2018-07-17T10:49:21.161Z,6.43
2018-07-17T10:51:50.118Z,4.80
2018-07-17T10:54:19.248Z,5.10
2018-07-17T10:56:48.450Z,6.70
2018-07-17T10:59:17.478Z,5.27
2018-07-17T11:01:46.462Z,4.03
2018-07-17T11:04:15.734Z,4.73
2018-07-17T11:06:44.898Z,6.80
2018-07-17T11:09:14.056Z,3.30
2018-07-17T11:11:43.183Z,5.03
2018-07-17T11:14:12.051Z,7.57
2018-07-17T11:16:41.005Z,3.73
2018-07-17T11:19:10.141Z,4.47
2018-07-17T11:21:39.363Z,4.40
2018-07-17T11:24:08.376Z,4.60
2018-07-17T11:26:37.242Z,4.53
2018-07-17T11:29:06.463Z,4.37
2018-07-17T11:31:35.552Z,5.40
2018-07-17T11:34:04.738Z,3.10
2018-07-17T11:36:33.873Z,3.00
2018-07-17T11:39:02.816Z,3.60
2018-07-17T11:41:31.974Z,4.00
2018-07-17T11:44:01.160Z,2.97
2018-07-17T11:46:29.982Z,4.73
2018-07-17T11:48:59.127Z,4.03
2018-07-17T11:51:28.282Z,4.33
2018-07-17T11:53:57.212Z,3.98
2018-07-17T11:56:26.432Z,3.00
2018-07-17T11:58:55.381Z,4.37
2018-07-17T12:01:24.559Z,3.92
2018-07-17T12:03:53.512Z,2.98
2018-07-17T12:06:22.694Z,3.12
2018-07-17T12:08:51.797Z,4.72
2018-07-17T12:11:20.544Z,3.17
2018-07-17T12:13:49.728Z,4.08
2018-07-17T12:16:18.638Z,3.87
2018-07-17T12:18:47.567Z,3.60
2018-07-17T12:21:16.677Z,3.83
2018-07-17T12:23:45.702Z,3.58
2018-07-17T12:26:14.957Z,3.92
2018-07-17T12:28:44.035Z,3.77
2018-07-17T12:31:13.222Z,3.05
2018-07-17T12:33:42.504Z,3.45
2018-07-17T12:36:11.835Z,3.35
2018-07-17T12:38:41.116Z,4.20
2018-07-17T12:41:10.119Z,4.92
2018-07-17T12:43:39.150Z,3.40
2018-07-17T12:46:08.212Z,3.80
2018-07-17T12:48:37.507Z,4.65
2018-07-17T12:51:06.493Z,3.35
2018-07-17T12:53:35.294Z,2.87
2018-07-17T12:56:04.456Z,3.27
2018-07-17T12:58:33.641Z,3.87
2018-07-17T13:01:03.018Z,4.85
2018-07-17T13:03:32.294Z,4.42
2018-07-17T13:06:01.472Z,4.63
2018-07-17T13:08:30.673Z,4.13
2018-07-17T13:11:00.338Z,2.85
2018-07-17T13:13:29.496Z,3.42
2018-07-17T13:15:58.398Z,3.60
2018-07-17T13:18:27.558Z,4.45
2018-07-17T13:20:56.851Z,4.62
2018-07-17T13:23:25.958Z,4.50
2018-07-17T13:25:54.932Z,3.72
2018-07-17T13:28:23.895Z,3.60
2018-07-17T13:30:53.074Z,4.10
2018-07-17T13:33:22.274Z,3.60
2018-07-17T13:35:51.503Z,3.92
2018-07-17T13:38:20.201Z,2.90
2018-07-17T13:40:49.058Z,4.13
2018-07-17T13:43:17.815Z,7.00
2018-07-17T13:45:47.014Z,4.80
2018-07-17T13:48:16.059Z,6.10
2018-07-17T13:50:44.859Z,4.33
2018-07-17T13:53:14.107Z,5.37
2018-07-17T13:55:42.943Z,3.97
2018-07-17T13:58:11.990Z,5.47
2018-07-17T14:00:41.073Z,4.47
2018-07-17T14:03:10.239Z,5.10
2018-07-17T14:05:39.382Z,5.17
2018-07-17T14:08:08.750Z,4.83
2018-07-17T14:10:37.571Z,5.53
2018-07-17T14:13:06.486Z,4.10
2018-07-17T14:15:35.867Z,4.50
2018-07-17T14:18:05.107Z,3.37
2018-07-17T14:20:34.298Z,5.10
2018-07-17T14:23:03.124Z,3.67
2018-07-17T14:25:32.203Z,4.70
2018-07-17T14:28:01.425Z,5.03
2018-07-17T14:30:30.402Z,3.20
2018-07-17T14:32:59.573Z,6.63
2018-07-17T14:35:28.441Z,5.03
2018-07-17T14:37:57.555Z,3.27
2018-07-17T14:40:26.738Z,5.63
2018-07-17T14:42:55.804Z,5.77
2018-07-17T14:45:25.363Z,5.13
2018-07-17T14:47:54.290Z,4.20
2018-07-17T14:50:23.444Z,4.73
2018-07-17T14:52:52.571Z,3.73
2018-07-17T14:55:21.845Z,5.03
2018-07-17T14:57:50.991Z,4.47
2018-07-17T15:00:19.862Z,5.77
2018-07-17T15:02:48.699Z,6.47
2018-07-17T15:05:17.764Z,5.73
2018-07-17T15:07:46.817Z,8.47
2018-07-17T15:10:16.026Z,5.77
2018-07-17T15:12:45.143Z,4.77
2018-07-17T15:15:14.351Z,4.83
2018-07-17T15:17:43.663Z,6.00
2018-07-17T15:20:12.406Z,7.20
2018-07-17T15:22:41.350Z,12.60
2018-07-17T15:25:10.374Z,12.73
2018-07-17T15:27:39.451Z,6.87
2018-07-17T15:30:08.579Z,4.57
2018-07-17T15:32:37.796Z,5.20
2018-07-17T15:35:06.971Z,7.80
2018-07-17T15:37:35.703Z,5.37
2018-07-17T15:40:05.330Z,6.07
2018-07-17T15:42:34.557Z,6.13
2018-07-17T15:45:03.856Z,5.30
2018-07-17T15:47:33.009Z,6.27
2018-07-17T15:50:01.940Z,4.23
2018-07-17T15:52:31.076Z,5.93
2018-07-17T15:54:59.895Z,4.67
2018-07-17T15:57:29.158Z,4.67
2018-07-17T15:59:58.261Z,4.73
2018-07-17T16:02:27.506Z,6.13
2018-07-17T16:04:56.805Z,6.80
2018-07-17T16:07:25.483Z,5.83
2018-07-17T16:09:54.502Z,5.00
2018-07-17T16:12:23.531Z,8.13
2018-07-17T16:14:52.815Z,26.77
2018-07-17T16:17:21.571Z,18.87
2018-07-17T16:19:50.663Z,20.17
2018-07-17T16:22:19.808Z,15.90
2018-07-17T16:24:48.977Z,29.40
2018-07-17T16:27:18.243Z,8.80
2018-07-17T16:29:47.354Z,4.60
2018-07-17T16:32:16.539Z,6.20
2018-07-17T16:34:45.735Z,5.83
2018-07-17T16:37:14.978Z,7.53
2018-07-17T16:39:43.883Z,6.07
2018-07-17T16:42:13.045Z,6.43
2018-07-17T16:44:41.866Z,5.60
2018-07-17T16:47:10.840Z,6.00
2018-07-17T16:49:39.856Z,6.20
2018-07-17T16:52:09.135Z,5.53
2018-07-17T16:54:38.377Z,6.33
2018-07-17T16:57:07.663Z,3.87
2018-07-17T16:59:36.942Z,3.80
2018-07-17T17:02:06.099Z,5.57
2018-07-17T17:04:35.329Z,5.17
2018-07-17T17:07:04.270Z,6.93
2018-07-17T17:09:33.616Z,4.83
2018-07-17T17:12:02.635Z,6.03
2018-07-17T17:14:31.747Z,5.23
2018-07-17T17:17:00.904Z,8.13
2018-07-17T17:19:30.182Z,5.83
2018-07-17T17:21:59.028Z,5.43
2018-07-17T17:24:28.497Z,5.13
2018-07-17T17:26:57.580Z,7.17
2018-07-17T17:29:26.785Z,3.80
2018-07-17T17:31:55.523Z,5.93
2018-07-17T17:34:24.600Z,6.47
2018-07-17T17:36:53.868Z,5.33
2018-07-17T17:39:23.028Z,5.93
2018-07-17T17:41:52.070Z,11.40
2018-07-17T17:44:21.246Z,9.53
2018-07-17T17:46:50.302Z,8.90
2018-07-17T17:49:19.440Z,10.30
2018-07-17T17:51:48.665Z,7.73
2018-07-17T17:54:17.410Z,5.87
2018-07-17T17:56:46.469Z,5.73
2018-07-17T17:59:15.502Z,5.70
2018-07-17T18:01:44.680Z,5.67
2018-07-17T18:04:13.815Z,5.53
2018-07-17T18:06:42.990Z,5.03
2018-07-17T18:09:12.207Z,4.60
2018-07-17T18:11:41.531Z,5.87
2018-07-17T18:14:10.342Z,5.40
2018-07-17T18:16:39.428Z,5.20
2018-07-17T18:19:08.478Z,5.93
2018-07-17T18:21:37.596Z,7.13
2018-07-17T18:24:06.932Z,6.93
2018-07-17T18:26:36.571Z,4.90
2018-07-17T18:29:06.689Z,6.83
2018-07-17T18:31:35.517Z,4.27
2018-07-17T18:34:04.614Z,6.07
2018-07-17T18:36:33.800Z,4.73
2018-07-17T18:39:03.228Z,6.27
2018-07-17T18:41:32.329Z,5.10
2018-07-17T18:44:01.532Z,5.03
2018-07-17T18:46:30.610Z,5.57
2018-07-17T18:48:59.447Z,5.70
2018-07-17T18:51:28.443Z,4.30
2018-07-17T18:53:57.707Z,7.87
2018-07-17T18:56:26.986Z,6.13
2018-07-17T18:58:56.307Z,5.60
2018-07-17T19:01:25.897Z,5.40
2018-07-17T19:03:55.231Z,6.00
2018-07-17T19:06:24.434Z,6.70
2018-07-17T19:08:53.430Z,9.30
2018-07-17T19:11:22.246Z,5.23
2018-07-17T19:13:51.331Z,5.57
2018-07-17T19:16:20.509Z,5.77
2018-07-17T19:18:49.522Z,6.43
2018-07-17T19:21:18.919Z,6.30
2018-07-17T19:23:47.926Z,6.33
2018-07-17T19:26:17.082Z,5.27
2018-07-17T19:28:46.116Z,5.77
2018-07-17T19:31:15.264Z,4.50
2018-07-17T19:33:44.572Z,6.07
2018-07-17T19:36:13.383Z,6.20
2018-07-17T19:38:42.320Z,4.40
2018-07-17T19:41:11.346Z,6.77
2018-07-17T19:43:40.426Z,3.83
2018-07-17T19:46:09.592Z,4.33
2018-07-17T19:48:38.889Z,5.87
2018-07-17T19:51:08.483Z,4.63
2018-07-17T19:53:37.436Z,5.80
2018-07-17T19:56:07.275Z,4.17
2018-07-17T19:58:36.370Z,6.13
2018-07-17T20:01:05.617Z,5.50
2018-07-17T20:03:34.374Z,4.73
2018-07-17T20:06:03.488Z,4.73
2018-07-17T20:08:32.974Z,4.20
2018-07-17T20:11:02.034Z,4.57
2018-07-17T20:13:31.299Z,3.70
2018-07-17T20:16:00.535Z,3.70
2018-07-17T20:18:29.794Z,5.07
2018-07-17T20:20:59.035Z,3.97
2018-07-17T20:23:28.049Z,5.23
2018-07-17T20:25:57.175Z,6.97
2018-07-17T20:28:26.487Z,4.13
2018-07-17T20:30:55.775Z,4.53
2018-07-17T20:33:24.953Z,6.37
2018-07-17T20:35:54.075Z,4.20
2018-07-17T20:38:23.149Z,3.97
2018-07-17T20:40:52.100Z,3.63
2018-07-17T20:43:20.983Z,4.70
2018-07-17T20:45:50.276Z,3.60
2018-07-17T20:48:19.478Z,3.83
2018-07-17T20:50:48.391Z,5.37
2018-07-17T20:53:17.357Z,4.00
2018-07-17T20:55:46.527Z,4.23
2018-07-17T20:58:15.321Z,5.77
2018-07-17T21:00:44.658Z,4.07
2018-07-17T21:03:13.898Z,5.23
2018-07-17T21:05:43.046Z,5.43
2018-07-17T21:08:12.164Z,6.73
2018-07-17T21:10:41.333Z,4.23
2018-07-17T21:13:10.430Z,4.77
2018-07-17T21:15:39.398Z,4.33
2018-07-17T21:18:08.458Z,6.10
2018-07-17T21:20:37.694Z,4.70
2018-07-17T21:23:06.907Z,6.23
2018-07-17T21:25:36.236Z,4.87
2018-07-17T21:28:05.503Z,4.17
2018-07-17T21:30:34.348Z,5.50
2018-07-17T21:33:03.379Z,5.13
2018-07-17T21:35:32.479Z,4.37
2018-07-17T21:38:01.576Z,5.93
2018-07-17T21:40:30.762Z,4.37
2018-07-17T21:42:59.819Z,6.37
2018-07-17T21:45:28.614Z,4.40
2018-07-17T21:47:57.826Z,4.23
2018-07-17T21:50:27.047Z,4.80
2018-07-17T21:52:56.190Z,5.30
2018-07-17T21:55:25.452Z,4.87
2018-07-17T21:57:54.533Z,5.30
2018-07-17T22:00:23.730Z,5.67
2018-07-17T22:02:52.482Z,8.53
2018-07-17T22:05:21.674Z,6.37
2018-07-17T22:07:50.511Z,5.63
2018-07-17T22:10:19.815Z,5.63
2018-07-17T22:12:49.138Z,5.93
2018-07-17T22:15:18.372Z,5.37
2018-07-17T22:17:47.419Z,6.13
2018-07-17T22:20:16.368Z,7.60
2018-07-17T22:22:45.276Z,6.27
2018-07-17T22:25:14.363Z,5.60
2018-07-17T22:27:43.651Z,5.70
2018-07-17T22:30:12.866Z,5.63
2018-07-17T22:32:42.017Z,5.10
2018-07-17T22:35:11.177Z,6.43
2018-07-17T22:37:40.080Z,5.40
2018-07-17T22:40:09.081Z,5.30
2018-07-17T22:42:38.171Z,5.83
2018-07-17T22:45:07.839Z,5.53
2018-07-17T22:47:37.144Z,5.90
2018-07-17T22:50:06.484Z,6.63
2018-07-17T22:52:35.580Z,5.93
2018-07-17T22:55:04.394Z,6.90
2018-07-17T22:57:33.511Z,7.10
2018-07-17T23:00:02.575Z,7.67
2018-07-17T23:02:31.694Z,7.60
2018-07-17T23:05:00.805Z,7.33
2018-07-17T23:07:29.996Z,7.60
2018-07-17T23:09:58.787Z,7.27
2018-07-17T23:12:28.085Z,7.83
2018-07-17T23:14:57.330Z,7.90
2018-07-17T23:17:26.358Z,9.23
2018-07-17T23:19:55.535Z,8.03
2018-07-17T23:22:58.640Z,8.17
2018-07-17T23:25:28.814Z,8.43
2018-07-17T23:27:58.306Z,9.20
2018-07-17T23:30:27.618Z,8.17
2018-07-17T23:32:56.614Z,8.67
2018-07-17T23:35:26.307Z,9.27
2018-07-17T23:37:55.509Z,8.90
2018-07-17T23:40:24.634Z,8.87
2018-07-17T23:42:53.625Z,9.33
2018-07-17T23:45:22.756Z,9.97
2018-07-17T23:47:51.869Z,11.57
2018-07-17T23:50:20.847Z,9.87
2018-07-17T23:52:49.819Z,9.27
2018-07-17T23:55:18.926Z,9.27
2018-07-17T23:57:48.026Z,9.60
